Fort Collins, CO

8:24 PM MDT on August 29, 2014 (GMT -0600)
Hanna Farm | Change Station
CLOSE
Current Station
Personal Weather Station
Location: Fort Collins, CO
Elevation: 5033 ft
Nearby Weather Stations

Elev 5033 ft 40.59 °N, 105.10 °W | Updated 13 seconds ago

Clear
Clear
57.4 °F
Feels Like 57.4 °F
N
0.0
Wind Variable Wind from SSE
Gusts 1.1 mph

Today
High -- | Low -- °F
--% Chance of Precip.
Yesterday
High -- | Low -- °F
Precip. -- in
6:24 AM 7:37 PM
Waxing Crescent, 18% visible
Pressure 30.13 in
Visibility 10.0 miles
Clouds Scattered Clouds 10000 ft
Dew Point 56 °F
Humidity 97%
Rainfall 0.14 in
Snow Depth Not available.
UV 0 out of 12
Pollen 10.00 out of 12
Ozone Good
PM2.5 Good
Flu Activity Not available.
METAR KFNL 300215Z AUTO 17003KT 10SM SCT100 17/10 A3013 RMK AO1 LTG DSNT NE

More Conditions Fewer Conditions

Pressure 30.13 in
Visibility 10.0 miles
Clouds Scattered Clouds 10000 ft
Dew Point 56 °F
Humidity 97%
Rainfall 0.14 in
Snow Depth Not available.
UV 0 out of 12
Pollen 10.00 out of 12
Ozone Good
PM2.5 Good
Flu Activity Not available.
METAR KFNL 300215Z AUTO 17003KT 10SM SCT100 17/10 A3013 RMK AO1 LTG DSNT NE

More Conditions Fewer Conditions

10-Day Weather Forecast

Almanac

Astronomy

Aug. 29, 2014 Rise Set
Actual Time 6:24 AM MDT 7:37 PM MDT
Civil Twilight 5:56 AM MDT 8:05 PM MDT
Nautical Twilight 5:22 AM MDT 8:39 PM MDT
Astronomical Twilight 4:47 AM MDT 9:14 PM MDT
Moon 10:17 AM MDT (8/29) 9:35 PM MDT (8/29)
Length of Visible Light 14h 08m
Length of Day
13h 12m
Tomorrow will be 2m 34s shorter.
Waxing Crescent, 18% of the Moon is Illuminated
Today
Waxing Crescent
Sep 2
First Quarter
Sep 8
Full
Sep 15
Last Quarter
Sep 24
New

Today's Extremes

State Highs State Lows

Community

WunderPhotos

Upload Photos

1,748,412 photos uploaded!

Nearby

Air Quality

  Air Quality AQ Index Pollutant
Yesterday Good
OZONE
Yesterday Good
PM2.5
Current Good
PM2.5
Current Good
OZONE
Friday Good
PM2.5
Friday Good
OZONE
Saturday Good
PM2.5
Saturday Good
OZONE

Snow Depth

Station Depth Elevation
Willow Park 8 in 10700 ft
Wild Basin 0 in 9560 ft
Lake Irene 0 in 10700 ft
Joe Wright 0 in 10120 ft
Niwot 0 in 9910 ft

Earthquake Activity

City Distance Mag. Time & Date
No recent earthquake activity has been reported nearby.
Minimum magnitude displayed is 2.5.

Coastal Water Temperatures

Place Temperature
No Stations Reporting

Nearby Weather Stations